»·PEaware :: N626N KSNA-KVNY

N626N :: KSNA-KVNY

FLIGHT INFORMATION

Flight Status: Arrived
Operator: Privately registered:
United States
More flights under this callsign
Pilot: Bruno Oliveira (13284)
Aircraft: Unknown
(B60T)
More flights by this aircraft type
Origin: KSNA John Wayne-Orange Co
United States
Destination: KVNY Van Nuys
United States
More flights between these airports :: More routes between these airports
Route: SLI SLI341R ELMOO V186 VNY
File this flight plan on PilotEdge
Remarks: / RMK TEC CSTN5
Altitude:
(Current/Filed)
6,000ft
Speed:
(Current/Filed)
200kts
Departed: 17-Feb-17 08:50 AM
Arrived: 17-Feb-17 09:20 AM
Distance/Time
Traveled:
44nm/0:30
Distance/Time
To Go:
Arrived

Flight Plot

Page will automatically refresh every two minutes.

Flight plan parsing failed; only flown route is shown


Map Options




Map Legend


Flown Route
Filed Route
Departure Airport
Arrival Airport
Navaid (VOR, NDB)
Fix

Horizontal Profiles

Position Reports

Time Latitude Longitude Heading Altitude Ground
Speed
17-Feb-17 08:22 33.666218 -117.873038 34 59ft 0kts
17-Feb-17 08:23 33.666218 -117.873038 34 59ft 0kts
17-Feb-17 08:24 33.666218 -117.873038 34 59ft 0kts
17-Feb-17 08:25 33.666218 -117.873038 34 59ft 0kts
17-Feb-17 08:26 33.666218 -117.873038 34 59ft 0kts
17-Feb-17 08:27 33.666218 -117.873038 34 59ft 0kts
17-Feb-17 08:28 33.666218 -117.873038 34 59ft 0kts
17-Feb-17 08:29 33.666218 -117.873038 34 59ft 0kts
17-Feb-17 08:30 33.666218 -117.873038 34 59ft 0kts
17-Feb-17 08:31 33.666218 -117.873038 34 59ft 0kts
17-Feb-17 08:32 33.666218 -117.873038 34 59ft 0kts
17-Feb-17 08:33 33.666218 -117.873038 34 59ft 0kts
17-Feb-17 08:34 33.666218 -117.873038 34 59ft 0kts
17-Feb-17 08:35 33.666218 -117.873038 34 59ft 0kts
17-Feb-17 08:36 33.666218 -117.873038 34 59ft 0kts
17-Feb-17 08:37 33.666218 -117.873038 34 59ft 0kts
17-Feb-17 08:38 33.666218 -117.873038 34 59ft 0kts
17-Feb-17 08:39 33.666218 -117.873038 34 59ft 0kts
17-Feb-17 08:40 33.666218 -117.873038 34 59ft 0kts
17-Feb-17 08:41 33.666218 -117.873038 34 59ft 0kts
17-Feb-17 08:42 33.666219 -117.873037 34 59ft 0kts
17-Feb-17 08:43 33.666221 -117.873036 34 59ft 0kts
17-Feb-17 08:44 33.666223 -117.873034 34 59ft 0kts
17-Feb-17 08:45 33.666291 -117.873019 340 59ft 2kts
17-Feb-17 08:46 33.668788 -117.871184 41 59ft 15kts
17-Feb-17 08:47 33.672459 -117.867787 29 59ft 17kts
17-Feb-17 08:48 33.677185 -117.865077 28 59ft 19kts
17-Feb-17 08:49 33.679838 -117.864104 301 59ft 6kts
17-Feb-17 08:50 33.660376 -117.876906 192 1429ft 134kts
17-Feb-17 08:51 33.616497 -117.883289 180 3594ft 174kts
17-Feb-17 08:52 33.571835 -117.897838 231 5954ft 185kts
17-Feb-17 08:53 33.598373 -117.950598 351 6008ft 232kts
17-Feb-17 08:54 33.657770 -117.974637 329 5998ft 233kts
17-Feb-17 08:55 33.715004 -118.011529 329 5995ft 233kts
17-Feb-17 08:56 33.772292 -118.047865 330 5997ft 233kts
17-Feb-17 08:57 33.823007 -118.094900 315 5991ft 231kts
17-Feb-17 08:58 33.867818 -118.140589 316 6025ft 230kts
17-Feb-17 08:59 33.915945 -118.189580 316 6022ft 231kts
17-Feb-17 09:00 33.964988 -118.239539 316 6018ft 231kts
17-Feb-17 09:01 34.013941 -118.289482 316 6015ft 231kts
17-Feb-17 09:02 34.062824 -118.339421 316 6055ft 230kts
17-Feb-17 09:03 34.112238 -118.389502 317 6046ft 232kts
17-Feb-17 09:04 34.163680 -118.437171 320 6020ft 233kts
17-Feb-17 09:05 34.216198 -118.483082 320 6021ft 233kts
17-Feb-17 09:06 34.271961 -118.523188 331 6019ft 235kts
17-Feb-17 09:07 34.331658 -118.556579 339 5741ft 240kts
17-Feb-17 09:08 34.390573 -118.579580 342 4995ft 220kts
17-Feb-17 09:09 34.450333 -118.596230 351 4963ft 219kts
17-Feb-17 09:10 34.492858 -118.575844 101 4941ft 153kts
17-Feb-17 09:11 34.470427 -118.543228 139 5027ft 131kts
17-Feb-17 09:12 34.441421 -118.515771 150 4987ft 133kts
17-Feb-17 09:13 34.404947 -118.508208 174 5002ft 135kts
17-Feb-17 09:14 34.368532 -118.505369 172 4734ft 126kts
17-Feb-17 09:15 34.329519 -118.501791 171 3765ft 150kts
17-Feb-17 09:16 34.292140 -118.498367 169 2793ft 123kts
17-Feb-17 09:17 34.259937 -118.495144 171 1995ft 112kts
17-Feb-17 09:18 34.232897 -118.492758 170 1246ft 89kts
17-Feb-17 09:19 34.208708 -118.490338 169 805ft 63kts
17-Feb-17 09:20 34.203654 -118.490786 192 805ft 8kts
17-Feb-17 09:21 34.202511 -118.491629 81 805ft 2kts
17-Feb-17 09:22 34.202522 -118.491466 89 805ft 0kts
17-Feb-17 09:23 34.202522 -118.491466 89 805ft 0kts
17-Feb-17 09:24 34.202522 -118.491466 89 805ft 0kts

Navigation Log

Ident Type
Flight plan parsing failed, navigation log unavailable